createdAt,value
2022-08-31T00:02:30.956Z,102062.03
2022-08-31T00:05:16.601Z,102068.56
2022-08-31T00:08:01.892Z,102057.19
2022-08-31T00:10:47.938Z,102062.13
2022-08-31T00:13:33.137Z,102061.50
2022-08-31T00:16:18.568Z,102060.78
2022-08-31T00:19:04.858Z,102053.06
2022-08-31T00:21:50.290Z,102050.03
2022-08-31T00:24:35.344Z,102053.75
2022-08-31T00:27:21.894Z,102047.28
2022-08-31T00:30:08.381Z,102048.56
2022-08-31T00:32:53.257Z,102050.69
2022-08-31T00:35:44.011Z,102051.66
2022-08-31T00:38:29.370Z,102054.50
2022-08-31T00:41:16.310Z,102028.53
2022-08-31T00:44:04.559Z,102050.59
2022-08-31T00:46:49.618Z,102042.78
2022-08-31T00:49:37.456Z,102050.94
2022-08-31T00:52:37.989Z,102054.97
2022-08-31T00:55:29.164Z,102046.41
2022-08-31T00:58:14.371Z,102047.16
2022-08-31T01:00:59.999Z,102046.41
2022-08-31T01:03:45.466Z,102052.53
2022-08-31T01:06:30.809Z,102049.50
2022-08-31T01:09:16.151Z,102052.22
2022-08-31T01:12:01.629Z,102055.75
2022-08-31T01:14:47.181Z,102033.84
2022-08-31T01:17:34.898Z,102044.50
2022-08-31T01:20:52.156Z,102042.94
2022-08-31T01:23:42.837Z,102047.59
2022-08-31T01:26:30.905Z,102049.69
2022-08-31T01:29:17.386Z,102050.66
2022-08-31T01:32:03.819Z,102048.19
2022-08-31T01:34:49.301Z,102051.78
2022-08-31T01:37:34.622Z,102048.41
2022-08-31T01:40:34.844Z,102043.88
2022-08-31T01:43:20.941Z,102039.75
2022-08-31T01:46:09.284Z,102043.34
2022-08-31T01:48:54.802Z,102044.63
2022-08-31T01:51:40.221Z,102053.38
2022-08-31T01:54:27.632Z,102053.50
2022-08-31T01:57:13.233Z,102052.00
2022-08-31T02:00:00.764Z,102037.44
2022-08-31T02:02:46.160Z,102056.44
2022-08-31T02:05:31.382Z,102040.16
2022-08-31T02:08:16.380Z,102053.28
2022-08-31T02:11:01.865Z,102046.53
2022-08-31T02:13:46.797Z,102043.22
2022-08-31T02:16:32.078Z,102047.59
2022-08-31T02:19:17.820Z,102033.41
2022-08-31T02:22:02.746Z,102029.63
2022-08-31T02:24:48.064Z,102040.19
2022-08-31T02:27:33.472Z,102050.97
2022-08-31T02:30:19.585Z,102044.81
2022-08-31T02:33:04.964Z,102034.56
2022-08-31T02:35:51.755Z,102045.03
2022-08-31T02:38:39.757Z,102044.59
2022-08-31T02:41:24.722Z,102046.28
2022-08-31T02:44:10.093Z,102047.34
2022-08-31T02:46:55.529Z,102041.50
2022-08-31T02:49:40.605Z,102033.72
2022-08-31T02:52:25.869Z,102031.28
2022-08-31T02:55:11.253Z,102031.47
2022-08-31T02:57:56.465Z,102033.38
2022-08-31T03:00:46.837Z,102031.78
2022-08-31T03:03:33.268Z,102032.50
2022-08-31T03:06:19.702Z,102026.59
2022-08-31T03:09:04.830Z,102032.84
2022-08-31T03:11:50.240Z,102023.22
2022-08-31T03:14:35.225Z,102012.00
2022-08-31T03:17:20.457Z,102023.63
2022-08-31T03:20:07.061Z,102034.59
2022-08-31T03:22:52.812Z,102028.66
2022-08-31T03:25:39.606Z,102030.59
2022-08-31T03:28:24.873Z,102040.28
2022-08-31T03:31:11.238Z,102030.13
2022-08-31T03:33:57.506Z,102037.97
2022-08-31T03:36:42.473Z,102027.69
2022-08-31T03:39:27.869Z,102030.25
2022-08-31T03:42:13.225Z,102030.34
2022-08-31T03:44:58.481Z,102009.81
2022-08-31T03:47:44.839Z,102027.16
2022-08-31T03:50:30.886Z,102031.66
2022-08-31T03:53:21.868Z,102022.91
2022-08-31T03:56:08.848Z,102029.88
2022-08-31T03:58:54.107Z,102029.22
2022-08-31T04:01:39.470Z,102012.28
2022-08-31T04:04:24.487Z,102019.25
2022-08-31T04:07:09.710Z,102033.59
2022-08-31T04:09:54.713Z,101998.19
2022-08-31T04:12:40.508Z,102022.63
2022-08-31T04:15:25.766Z,102018.31
2022-08-31T04:18:14.520Z,101998.75
2022-08-31T04:20:59.622Z,102005.63
2022-08-31T04:23:44.727Z,102015.25
2022-08-31T04:26:33.769Z,102010.53
2022-08-31T04:29:19.662Z,101999.16
2022-08-31T04:32:04.989Z,102011.19
2022-08-31T04:34:56.556Z,102016.66
2022-08-31T04:37:46.650Z,102013.28
2022-08-31T04:40:32.164Z,102018.25
2022-08-31T04:43:17.966Z,102024.28
2022-08-31T04:46:04.617Z,102022.59
2022-08-31T04:48:50.559Z,102024.13
2022-08-31T04:51:37.149Z,102023.53
2022-08-31T04:54:22.162Z,102025.03
2022-08-31T04:57:07.577Z,102023.84
2022-08-31T04:59:52.865Z,102028.38
2022-08-31T05:02:38.133Z,102023.84
2022-08-31T05:05:23.313Z,102022.88
2022-08-31T05:08:08.826Z,102032.13
2022-08-31T05:10:54.005Z,102034.88
2022-08-31T05:13:38.917Z,102024.22
2022-08-31T05:16:25.112Z,102024.41
2022-08-31T05:19:10.338Z,102035.13
2022-08-31T05:21:55.609Z,102025.13
2022-08-31T05:24:41.418Z,102027.66
2022-08-31T05:27:26.650Z,102024.91
2022-08-31T05:30:11.945Z,102012.69
2022-08-31T05:32:56.768Z,102020.09
2022-08-31T05:35:41.737Z,102018.94
2022-08-31T05:38:27.205Z,102024.03
2022-08-31T05:41:12.765Z,102022.25
2022-08-31T05:43:58.621Z,102012.28
2022-08-31T05:46:44.732Z,101999.25
2022-08-31T05:49:37.543Z,102019.56
2022-08-31T05:52:26.686Z,102014.94
2022-08-31T05:55:12.183Z,102024.25
2022-08-31T05:57:57.470Z,102019.63
2022-08-31T06:00:42.724Z,102025.53
2022-08-31T06:03:29.208Z,102010.75
2022-08-31T06:06:16.747Z,102018.06
2022-08-31T06:09:01.942Z,102017.72
2022-08-31T06:11:47.374Z,102018.25
2022-08-31T06:14:32.887Z,102008.47
2022-08-31T06:17:18.191Z,102006.78
2022-08-31T06:20:05.129Z,102026.84
2022-08-31T06:22:50.166Z,102022.97
2022-08-31T06:25:36.631Z,102029.41
2022-08-31T06:28:21.813Z,102033.19
2022-08-31T06:31:12.143Z,102029.19
2022-08-31T06:33:58.361Z,102031.19
2022-08-31T06:36:43.617Z,102014.34
2022-08-31T06:39:28.850Z,102011.22
2022-08-31T06:42:13.725Z,102008.25
2022-08-31T06:44:59.023Z,102027.56
2022-08-31T06:47:44.445Z,102019.94
2022-08-31T06:50:29.657Z,102024.47
2022-08-31T06:53:15.064Z,102025.81
2022-08-31T06:56:20.871Z,102028.66
2022-08-31T06:59:07.687Z,102023.50
2022-08-31T07:01:52.778Z,102031.53
2022-08-31T07:04:39.100Z,102014.69
2022-08-31T07:07:23.913Z,102031.84
2022-08-31T07:10:10.505Z,102023.97
2022-08-31T07:12:55.517Z,102018.00
2022-08-31T07:15:40.794Z,102021.13
2022-08-31T07:18:25.861Z,102034.75
2022-08-31T07:21:19.701Z,102010.09
2022-08-31T07:24:08.887Z,101999.84
2022-08-31T07:27:00.224Z,102029.13
2022-08-31T07:29:45.455Z,102004.31
2022-08-31T07:32:30.745Z,102021.59
2022-08-31T07:35:17.708Z,102020.75
2022-08-31T07:38:23.638Z,102012.56
2022-08-31T07:41:28.852Z,102019.44
2022-08-31T07:44:15.528Z,102027.50
2022-08-31T07:47:01.322Z,102021.97
2022-08-31T07:49:51.313Z,102018.84
2022-08-31T07:52:47.049Z,102024.03
2022-08-31T07:55:35.031Z,102028.00
2022-08-31T07:58:22.623Z,102025.66
2022-08-31T08:01:09.069Z,102020.13
2022-08-31T08:03:54.081Z,102024.81
2022-08-31T08:06:39.565Z,102032.03
2022-08-31T08:09:29.696Z,102030.94
2022-08-31T08:12:15.033Z,102035.00
2022-08-31T08:15:00.264Z,102039.44
2022-08-31T08:17:45.429Z,102031.69
2022-08-31T08:20:37.690Z,102039.88
2022-08-31T08:23:28.796Z,102035.44
2022-08-31T08:26:21.647Z,102044.06
2022-08-31T08:29:07.025Z,102045.41
2022-08-31T08:31:54.285Z,102037.69
2022-08-31T08:34:43.387Z,102044.25
2022-08-31T08:37:54.259Z,102043.41
2022-08-31T08:40:42.286Z,102044.25
2022-08-31T08:43:32.465Z,102042.72
2022-08-31T08:46:34.461Z,102042.63
2022-08-31T08:49:28.909Z,102039.97
2022-08-31T08:52:30.113Z,102023.28
2022-08-31T08:55:24.307Z,102031.19
2022-08-31T08:58:13.516Z,102039.94
2022-08-31T09:01:01.075Z,102036.03
2022-08-31T09:03:52.629Z,102047.88
2022-08-31T09:06:54.441Z,102034.81
2022-08-31T09:10:01.462Z,102046.56
2022-08-31T09:12:58.023Z,102047.41
2022-08-31T09:15:58.442Z,102044.66
2022-08-31T09:19:00.790Z,102048.88
2022-08-31T09:21:50.446Z,102039.69
2022-08-31T09:24:35.625Z,102037.72
2022-08-31T09:27:57.340Z,102051.50
2022-08-31T09:30:45.840Z,102046.97
2022-08-31T09:33:46.557Z,102057.38
2022-08-31T09:36:37.817Z,102066.34
2022-08-31T09:39:34.502Z,102059.38
2022-08-31T09:42:31.163Z,102047.88
2022-08-31T09:45:30.007Z,102050.94
2022-08-31T09:48:44.389Z,102061.72
2022-08-31T09:51:37.970Z,102060.28
2022-08-31T09:54:46.917Z,102068.00
2022-08-31T09:57:43.385Z,102058.44
2022-08-31T10:00:41.189Z,102065.53
2022-08-31T10:03:29.710Z,102054.91
2022-08-31T10:06:45.642Z,102047.63
2022-08-31T10:09:57.781Z,102051.72
2022-08-31T10:12:51.400Z,102032.81
2022-08-31T10:16:06.940Z,102043.19
2022-08-31T10:19:09.679Z,102032.28
2022-08-31T10:22:00.107Z,102038.84
2022-08-31T10:24:58.325Z,102027.25
2022-08-31T10:27:48.217Z,102033.84
2022-08-31T10:30:38.444Z,102029.34
2022-08-31T10:33:50.253Z,102040.97
2022-08-31T10:36:39.625Z,102042.50
2022-08-31T10:39:34.087Z,102028.19
2022-08-31T10:42:27.199Z,102040.69
2022-08-31T10:45:23.276Z,102033.81
2022-08-31T10:48:11.072Z,102026.13
2022-08-31T10:51:18.183Z,102026.00
2022-08-31T10:54:16.890Z,102017.16
2022-08-31T10:57:21.672Z,102018.56
2022-08-31T11:00:35.483Z,102013.63
2022-08-31T11:03:21.881Z,102009.13
2022-08-31T11:06:25.049Z,101997.78
2022-08-31T11:09:21.144Z,101998.13
2022-08-31T11:12:21.523Z,101997.88
2022-08-31T11:15:22.381Z,101998.50
2022-08-31T11:18:39.932Z,101997.69
2022-08-31T11:22:06.429Z,101982.41
2022-08-31T11:25:28.400Z,101996.66
2022-08-31T11:28:32.081Z,101991.56
2022-08-31T11:31:27.366Z,101963.94
2022-08-31T11:34:24.583Z,101975.72
2022-08-31T11:37:09.866Z,101991.03
2022-08-31T11:39:54.920Z,101977.16
2022-08-31T11:42:39.844Z,101969.50
2022-08-31T11:45:27.052Z,101970.69
2022-08-31T11:48:55.028Z,101975.25
2022-08-31T11:51:41.501Z,101988.63
2022-08-31T11:54:41.551Z,101976.63
2022-08-31T11:57:36.873Z,101967.09
2022-08-31T12:00:23.064Z,101976.03
2022-08-31T12:03:09.490Z,101971.72
2022-08-31T12:05:57.746Z,101981.72
2022-08-31T12:08:53.035Z,101984.78
2022-08-31T12:11:41.800Z,102001.19
2022-08-31T12:14:39.395Z,101979.66
2022-08-31T12:17:36.133Z,101990.78
2022-08-31T12:21:07.773Z,101997.34
2022-08-31T12:24:05.308Z,101975.16
2022-08-31T12:26:53.532Z,101980.78
2022-08-31T12:29:40.418Z,101993.91
2022-08-31T12:32:32.885Z,101990.41
2022-08-31T12:35:27.109Z,101993.84
2022-08-31T12:38:24.010Z,101991.31
2022-08-31T12:41:11.641Z,101995.81
2022-08-31T12:43:56.723Z,102002.00
2022-08-31T12:46:52.705Z,101989.97
2022-08-31T12:49:46.621Z,102002.50
2022-08-31T12:52:31.516Z,102001.09
2022-08-31T12:55:25.706Z,102001.00
2022-08-31T12:58:27.437Z,101998.56
2022-08-31T13:01:17.389Z,101992.97
2022-08-31T13:04:03.585Z,101993.81
2022-08-31T13:06:48.701Z,101993.91
2022-08-31T13:09:35.640Z,102005.00
2022-08-31T13:12:24.301Z,101995.47
2022-08-31T13:15:20.663Z,101995.00
2022-08-31T13:18:14.839Z,101989.06
2022-08-31T13:21:05.856Z,102001.41
2022-08-31T13:23:51.108Z,102003.25
2022-08-31T13:26:38.552Z,102003.66
2022-08-31T13:29:23.729Z,101997.00
2022-08-31T13:32:09.457Z,101997.50
2022-08-31T13:34:55.032Z,102006.53
2022-08-31T13:37:49.942Z,101981.66
2022-08-31T13:40:39.287Z,102000.13
2022-08-31T13:43:26.720Z,101998.09
2022-08-31T13:46:11.860Z,101996.16
2022-08-31T13:49:01.723Z,101999.00
2022-08-31T13:51:47.097Z,101988.97
2022-08-31T13:54:35.814Z,101990.81
2022-08-31T13:57:25.889Z,101985.59
2022-08-31T14:00:34.973Z,101999.50
2022-08-31T14:04:11.741Z,101991.63
2022-08-31T14:06:57.981Z,101988.78
2022-08-31T14:09:49.458Z,101988.97
2022-08-31T14:12:45.982Z,101979.22
2022-08-31T14:15:53.430Z,101979.06
2022-08-31T14:18:45.092Z,101978.38
2022-08-31T14:21:34.146Z,101983.94
2022-08-31T14:24:20.679Z,101986.72
2022-08-31T14:27:06.754Z,101984.06
2022-08-31T14:29:52.245Z,101987.44
2022-08-31T14:32:37.735Z,101975.03
2022-08-31T14:35:26.314Z,101983.41
2022-08-31T14:38:15.310Z,101966.50
2022-08-31T14:41:00.561Z,101979.41
2022-08-31T14:43:47.356Z,101971.34
2022-08-31T14:46:35.992Z,101986.91
2022-08-31T14:49:21.469Z,101983.03
2022-08-31T14:52:07.092Z,101987.72
2022-08-31T14:54:53.888Z,101980.22
2022-08-31T14:57:43.446Z,101977.69
2022-08-31T15:00:32.347Z,101973.84
2022-08-31T15:03:17.706Z,101987.38
2022-08-31T15:06:04.267Z,101979.34
2022-08-31T15:08:50.520Z,101980.34
2022-08-31T15:11:37.192Z,101977.34
2022-08-31T15:14:22.393Z,101987.06
2022-08-31T15:17:19.314Z,101982.00
2022-08-31T15:20:08.030Z,101980.31
2022-08-31T15:22:52.889Z,101971.25
2022-08-31T15:25:39.235Z,101969.16
2022-08-31T15:28:24.399Z,101963.09
2022-08-31T15:31:20.181Z,101971.66
2022-08-31T15:34:10.010Z,101956.16
2022-08-31T15:36:59.486Z,101957.06
2022-08-31T15:39:48.913Z,101946.53
2022-08-31T15:42:38.253Z,101955.38
2022-08-31T15:45:25.726Z,101950.88
2022-08-31T15:48:29.437Z,101953.66
2022-08-31T15:51:20.573Z,101949.38
2022-08-31T15:54:21.693Z,101937.50
2022-08-31T15:57:08.313Z,101942.97
2022-08-31T15:59:53.834Z,101951.31
2022-08-31T16:02:39.393Z,101948.78
2022-08-31T16:05:35.589Z,101942.66
2022-08-31T16:08:26.922Z,101921.78
2022-08-31T16:11:12.058Z,101930.06
2022-08-31T16:14:01.067Z,101928.69
2022-08-31T16:16:48.408Z,101925.19
2022-08-31T16:19:36.164Z,101916.25
2022-08-31T16:22:22.484Z,101912.06
2022-08-31T16:25:16.265Z,101902.28
2022-08-31T16:28:01.593Z,101900.19
2022-08-31T16:30:47.013Z,101908.78
2022-08-31T16:33:32.198Z,101911.03
2022-08-31T16:36:19.460Z,101905.75
2022-08-31T16:39:05.059Z,101905.75
2022-08-31T16:41:50.313Z,101879.53
2022-08-31T16:44:36.509Z,101895.50
2022-08-31T16:47:22.349Z,101906.56
2022-08-31T16:50:08.770Z,101908.94
2022-08-31T16:52:54.077Z,101908.69
2022-08-31T16:55:40.925Z,101901.94
2022-08-31T16:58:49.972Z,101886.56
2022-08-31T17:01:34.215Z,101908.25
2022-08-31T17:04:41.008Z,101893.44
2022-08-31T17:07:26.786Z,101900.28
2022-08-31T17:10:12.065Z,101898.59
2022-08-31T17:12:57.371Z,101900.00
2022-08-31T17:15:43.025Z,101901.25
2022-08-31T17:18:29.619Z,101893.47
2022-08-31T17:21:17.332Z,101898.53
2022-08-31T17:24:04.663Z,101894.59
2022-08-31T17:26:53.914Z,101887.84
2022-08-31T17:29:44.075Z,101885.47
2022-08-31T17:32:29.369Z,101887.41
2022-08-31T17:35:19.100Z,101880.81
2022-08-31T17:38:04.993Z,101894.94
2022-08-31T17:40:50.394Z,101899.72
2022-08-31T17:43:38.722Z,101889.03
2022-08-31T17:46:25.899Z,101896.31
2022-08-31T17:49:11.282Z,101900.22
2022-08-31T17:52:04.392Z,101902.44
2022-08-31T17:54:50.971Z,101894.00
2022-08-31T17:57:36.634Z,101890.78
2022-08-31T18:00:21.978Z,101881.09
2022-08-31T18:03:07.135Z,101889.63
2022-08-31T18:05:52.399Z,101896.19
2022-08-31T18:08:37.910Z,101901.91
2022-08-31T18:11:23.701Z,101893.22
2022-08-31T18:14:08.962Z,101898.91
2022-08-31T18:16:55.954Z,101898.34
2022-08-31T18:19:41.198Z,101899.44
2022-08-31T18:22:27.218Z,101900.78
2022-08-31T18:25:12.273Z,101907.34
2022-08-31T18:27:57.602Z,101904.22
2022-08-31T18:30:43.171Z,101902.69
2022-08-31T18:33:28.871Z,101886.75
2022-08-31T18:36:15.014Z,101878.31
2022-08-31T18:39:00.319Z,101906.50
2022-08-31T18:42:03.877Z,101903.38
2022-08-31T18:45:07.705Z,101904.03
2022-08-31T18:51:03.180Z,101902.13
2022-08-31T18:53:48.491Z,101898.91
2022-08-31T18:56:33.566Z,101902.06
2022-08-31T18:59:20.236Z,101904.84
2022-08-31T19:02:06.007Z,101900.88
2022-08-31T19:04:51.825Z,101893.19
2022-08-31T19:07:38.055Z,101897.66
2022-08-31T19:10:23.239Z,101904.88
2022-08-31T19:13:08.431Z,101908.38
2022-08-31T19:15:57.954Z,101895.00
2022-08-31T19:18:48.478Z,101895.41
2022-08-31T19:21:35.551Z,101907.56
2022-08-31T19:24:22.265Z,101893.47
2022-08-31T19:27:09.113Z,101909.75
2022-08-31T19:29:56.312Z,101904.72
2022-08-31T19:32:41.510Z,101900.34
2022-08-31T19:35:27.408Z,101903.94
2022-08-31T19:38:12.502Z,101880.25
2022-08-31T19:40:58.350Z,101895.53
2022-08-31T19:43:49.046Z,101899.84
2022-08-31T19:46:40.953Z,101903.59
2022-08-31T19:49:28.073Z,101903.84
2022-08-31T19:52:13.314Z,101900.59
2022-08-31T19:55:08.684Z,101883.03
2022-08-31T19:57:54.721Z,101902.91
2022-08-31T20:00:39.857Z,101893.75
2022-08-31T20:03:26.982Z,101896.41
2022-08-31T20:06:16.854Z,101890.38
2022-08-31T20:09:02.566Z,101892.28
2022-08-31T20:11:48.428Z,101890.63
2022-08-31T20:14:34.633Z,101892.78
2022-08-31T20:17:20.292Z,101870.63
2022-08-31T20:20:05.905Z,101874.25
2022-08-31T20:22:54.027Z,101888.84
2022-08-31T20:25:39.860Z,101897.63
2022-08-31T20:28:28.089Z,101899.53
2022-08-31T20:31:14.436Z,101892.56
2022-08-31T20:33:59.890Z,101899.53
2022-08-31T20:36:45.414Z,101877.63
2022-08-31T20:39:32.499Z,101894.38
2022-08-31T20:42:19.847Z,101899.06
2022-08-31T20:45:05.527Z,101890.28
2022-08-31T20:48:09.411Z,101877.53
2022-08-31T20:50:56.097Z,101883.56
2022-08-31T20:53:43.518Z,101888.13
2022-08-31T20:56:28.802Z,101893.53
2022-08-31T20:59:13.811Z,101885.72
2022-08-31T21:02:03.332Z,101881.50
2022-08-31T21:04:49.061Z,101878.72
2022-08-31T21:07:36.149Z,101880.53
2022-08-31T21:10:27.797Z,101890.41
2022-08-31T21:13:22.634Z,101890.66
2022-08-31T21:16:07.939Z,101891.38
2022-08-31T21:18:52.998Z,101872.59
2022-08-31T21:21:43.789Z,101883.78
2022-08-31T21:24:29.057Z,101888.97
2022-08-31T21:27:16.955Z,101885.38
2022-08-31T21:30:06.153Z,101888.97
2022-08-31T21:32:51.088Z,101891.16
2022-08-31T21:35:36.123Z,101888.38
2022-08-31T21:38:21.360Z,101873.81
2022-08-31T21:41:09.033Z,101888.03
2022-08-31T21:43:56.560Z,101880.56
2022-08-31T21:46:41.623Z,101876.22
2022-08-31T21:49:26.777Z,101882.34
2022-08-31T21:52:12.525Z,101874.41
2022-08-31T21:54:57.924Z,101881.25
2022-08-31T21:57:43.671Z,101881.50
2022-08-31T22:00:29.745Z,101873.69
2022-08-31T22:03:16.827Z,101874.88
2022-08-31T22:06:07.203Z,101869.84
2022-08-31T22:08:55.232Z,101875.22
2022-08-31T22:11:45.602Z,101866.22
2022-08-31T22:14:32.581Z,101871.41
2022-08-31T22:17:17.756Z,101867.28
2022-08-31T22:20:03.790Z,101860.44
2022-08-31T22:22:48.983Z,101860.56
2022-08-31T22:25:34.838Z,101876.94
2022-08-31T22:28:21.200Z,101868.66
2022-08-31T22:31:08.837Z,101857.91
2022-08-31T22:33:54.381Z,101871.28
2022-08-31T22:36:40.586Z,101866.81
2022-08-31T22:39:29.930Z,101870.22
2022-08-31T22:42:15.128Z,101861.28
2022-08-31T22:45:01.705Z,101863.94
2022-08-31T22:47:50.038Z,101850.94
2022-08-31T22:50:35.331Z,101856.47
2022-08-31T22:53:20.809Z,101856.22
2022-08-31T22:56:12.070Z,101857.78
2022-08-31T22:58:59.956Z,101858.16
2022-08-31T23:01:54.824Z,101842.47
2022-08-31T23:04:43.879Z,101854.28
2022-08-31T23:07:29.009Z,101834.44
2022-08-31T23:10:18.519Z,101822.53
2022-08-31T23:13:04.310Z,101843.44
2022-08-31T23:15:49.967Z,101832.00
2022-08-31T23:18:36.556Z,101836.56
2022-08-31T23:21:21.512Z,101825.97
2022-08-31T23:24:06.917Z,101824.41
2022-08-31T23:26:53.723Z,101813.81
2022-08-31T23:29:45.563Z,101808.78
2022-08-31T23:32:32.125Z,101815.78
2022-08-31T23:35:18.697Z,101810.47
2022-08-31T23:38:03.926Z,101822.84
2022-08-31T23:40:49.318Z,101810.25
2022-08-31T23:43:38.311Z,101814.31
2022-08-31T23:46:24.942Z,101803.84
2022-08-31T23:49:13.673Z,101805.28
2022-08-31T23:51:59.170Z,101783.03
2022-08-31T23:54:54.511Z,101777.00
2022-08-31T23:57:39.854Z,101797.44
